Time;durP1;ratioP1;P1;durP2;ratioP2;P2;SDS_P1;SDS_P2;PMS_P1;PMS_P2;Temp;Humidity;BMP_temperature;BMP_pressure;BME280_temperature;BME280_humidity;BME280_pressure;Samples;Min_cycle;Max_cycle;Signal;HPM_P1;HPM_P2
2023/07/27 00:00:05;;;;;;;85.38;81.35;;;;;;;23.83;40.26;100903.19;4983250;28;20351;-75
2023/07/27 00:02:31;;;;;;;89.25;84.90;;;;;;;23.81;40.28;100897.19;5001914;28;20050;-75
2023/07/27 00:04:56;;;;;;;93.20;88.88;;;;;;;23.78;40.23;100898.66;4992133;28;20041;-75
2023/07/27 00:07:22;;;;;;;87.97;83.72;;;;;;;23.77;39.85;100893.47;4988399;28;20382;-75
2023/07/27 00:09:47;;;;;;;86.68;82.60;;;;;;;23.75;40.43;100889.06;4987688;28;20415;-76
2023/07/27 00:12:12;;;;;;;85.40;81.07;;;;;;;23.73;39.88;100885.03;4986437;28;20051;-75
2023/07/27 00:14:38;;;;;;;87.30;83.10;;;;;;;23.71;40.11;100877.06;4981741;28;20042;-75
2023/07/27 00:17:03;;;;;;;86.72;82.68;;;;;;;23.70;40.31;100878.19;4989266;28;20026;-75
2023/07/27 00:19:29;;;;;;;88.80;84.70;;;;;;;23.67;40.44;100869.78;4984303;28;20035;-74
2023/07/27 00:21:54;;;;;;;87.28;83.20;;;;;;;23.67;40.46;100875.28;4981631;28;20026;-75
2023/07/27 00:24:19;;;;;;;85.63;81.50;;;;;;;23.64;40.22;100871.25;4983766;28;20034;-76
2023/07/27 00:26:45;;;;;;;88.00;83.90;;;;;;;23.63;40.48;100864.09;4991169;28;20470;-75
2023/07/27 00:29:10;;;;;;;87.78;83.65;;;;;;;23.61;40.62;100860.88;4975327;28;20108;-75
2023/07/27 00:31:36;;;;;;;87.82;83.55;;;;;;;23.59;40.49;100852.13;4985647;28;20031;-75
2023/07/27 00:34:01;;;;;;;87.57;83.45;;;;;;;23.57;40.95;100859.91;4984210;28;20033;-74
2023/07/27 00:36:27;;;;;;;85.47;81.40;;;;;;;23.55;40.64;100854.69;4980387;28;20030;-75
2023/07/27 00:38:52;;;;;;;86.32;82.18;;;;;;;23.55;40.92;100846.44;4993567;28;20062;-75
2023/07/27 00:41:18;;;;;;;85.38;81.25;;;;;;;23.53;40.95;100850.66;4984686;28;20050;-75
2023/07/27 00:43:43;;;;;;;87.05;82.82;;;;;;;23.50;40.76;100835.56;4983641;28;20535;-75
2023/07/27 00:46:09;;;;;;;85.72;81.78;;;;;;;23.49;40.68;100831.22;4988522;28;20519;-76
2023/07/27 00:48:34;;;;;;;88.22;83.97;;;;;;;23.48;40.65;100831.53;4986622;28;20034;-75
2023/07/27 00:51:01;;;;;;;88.20;83.88;;;;;;;23.45;40.94;100824.72;4985318;28;20034;-76
2023/07/27 00:53:26;;;;;;;87.13;82.97;;;;;;;23.44;40.87;100819.56;4983251;28;20034;-77
2023/07/27 00:55:52;;;;;;;87.25;82.85;;;;;;;23.42;41.24;100822.63;4984331;28;20038;-76
2023/07/27 00:58:17;;;;;;;88.10;83.90;;;;;;;23.41;40.91;100821.03;4983481;28;20041;-76
2023/07/27 01:00:43;;;;;;;83.47;79.45;;;;;;;23.39;41.01;100814.22;4976688;28;20467;-75
2023/07/27 01:03:09;;;;;;;87.28;82.85;;;;;;;23.37;41.27;100814.53;4981025;28;20054;-75
2023/07/27 01:05:35;;;;;;;91.93;87.35;;;;;;;23.36;41.43;100812.09;4988345;28;20088;-75
2023/07/27 01:08:01;;;;;;;86.28;81.72;;;;;;;23.33;40.92;100803.38;4966967;28;20388;-76
2023/07/27 01:10:41;;;;;;;86.38;82.10;;;;;;;23.31;41.45;100800.13;4985844;28;20039;-75
2023/07/27 01:13:22;;;;;;;86.13;81.93;;;;;;;23.29;41.50;100787.81;4998375;28;20491;-75
2023/07/27 01:15:55;;;;;;;82.95;78.80;;;;;;;23.26;41.27;100785.72;4985938;28;20101;-75
2023/07/27 01:18:40;;;;;;;85.22;81.18;;;;;;;23.25;41.35;100784.06;5001207;28;20034;-77
2023/07/27 01:21:24;;;;;;;85.57;81.18;;;;;;;23.23;41.47;100783.59;5000796;28;20030;-75
2023/07/27 01:24:14;;;;;;;84.50;80.30;;;;;;;23.20;41.61;100782.28;4980381;28;20025;-75
2023/07/27 01:27:12;;;;;;;86.38;82.18;;;;;;;23.18;41.46;100773.53;4978104;28;20038;-75
2023/07/27 01:30:35;;;;;;;85.40;81.30;;;;;;;23.15;41.46;100765.94;4995765;28;20116;-75
2023/07/27 01:33:10;;;;;;;83.88;79.72;;;;;;;23.11;41.37;100760.28;4934769;29;20027;-75
2023/07/27 01:35:47;;;;;;;85.18;80.97;;;;;;;23.09;41.72;100753.47;4986166;28;20540;-75
2023/07/27 01:38:13;;;;;;;82.78;78.57;;;;;;;23.07;41.61;100756.53;4989063;28;20034;-75
2023/07/27 01:40:40;;;;;;;83.18;79.07;;;;;;;23.06;41.70;100760.44;4982137;28;20045;-73
2023/07/27 01:43:06;;;;;;;81.03;77.03;;;;;;;23.04;41.70;100748.94;4981957;28;20039;-74
2023/07/27 01:45:32;;;;;;;88.30;83.85;;;;;;;23.03;42.22;100741.81;4982365;28;20482;-74
2023/07/27 01:47:59;;;;;;;86.25;81.72;;;;;;;23.02;41.69;100739.38;4980106;28;20038;-74
2023/07/27 01:50:27;;;;;;;85.05;80.95;;;;;;;23.00;41.88;100731.44;4987566;28;20026;-74
2023/07/27 01:52:54;;;;;;;84.27;80.27;;;;;;;22.99;42.03;100726.28;4981166;28;20026;-74
2023/07/27 01:55:22;;;;;;;81.77;77.87;;;;;;;22.97;42.04;100726.59;4977396;28;20282;-77
2023/07/27 01:57:49;;;;;;;83.37;79.27;;;;;;;22.95;42.11;100717.81;4988577;28;20030;-74
2023/07/27 02:00:15;;;;;;;86.65;81.85;;;;;;;22.93;42.28;100708.25;4988022;28;20023;-75
2023/07/27 02:02:43;;;;;;;82.78;78.80;;;;;;;22.92;42.48;100709.41;4984443;28;20477;-74
2023/07/27 02:05:10;;;;;;;81.85;77.95;;;;;;;22.90;42.00;100704.19;4988080;28;20042;-74
2023/07/27 02:07:36;;;;;;;85.07;80.93;;;;;;;22.87;42.27;100693.84;4988741;28;20451;-75
2023/07/27 02:10:01;;;;;;;82.18;78.20;;;;;;;22.86;42.16;100698.56;4989785;28;20042;-74
2023/07/27 02:12:32;;;;;;;84.88;80.78;;;;;;;22.84;42.50;100691.75;4982212;28;20046;-74
2023/07/27 02:15:05;;;;;;;82.97;78.88;;;;;;;22.82;42.26;100685.75;4984064;28;20383;-74
2023/07/27 02:18:03;;;;;;;82.20;78.18;;;;;;;22.79;42.71;100669.91;4984102;28;20042;-80
2023/07/27 02:20:33;;;;;;;79.28;75.60;;;;;;;22.77;42.15;100672.16;4978679;28;20050;-75
2023/07/27 02:23:00;;;;;;;86.43;82.20;;;;;;;22.75;42.43;100669.72;4983939;28;20029;-76
2023/07/27 02:25:25;;;;;;;80.57;76.88;;;;;;;22.73;42.30;100671.19;4985845;28;20479;-75
2023/07/27 02:27:51;;;;;;;80.28;76.22;;;;;;;22.72;42.62;100667.63;4982069;28;20038;-74
2023/07/27 02:30:17;;;;;;;80.32;76.32;;;;;;;22.70;42.61;100661.63;4985090;28;20071;-75
2023/07/27 02:32:42;;;;;;;82.28;78.20;;;;;;;22.68;42.89;100650.16;4983725;28;20046;-74
2023/07/27 02:35:08;;;;;;;82.22;78.22;;;;;;;22.66;42.69;100649.69;4979725;28;20039;-73
2023/07/27 02:37:34;;;;;;;82.10;78.15;;;;;;;22.64;42.80;100650.00;4983755;28;20415;-74
2023/07/27 02:39:59;;;;;;;82.22;78.32;;;;;;;22.63;43.13;100644.81;4982510;28;20042;-74
2023/07/27 02:42:24;;;;;;;83.40;78.85;;;;;;;22.61;42.58;100638.84;4987730;28;20026;-74
2023/07/27 02:44:50;;;;;;;84.10;79.75;;;;;;;22.58;42.62;100637.53;4982190;28;20041;-74
2023/07/27 02:47:15;;;;;;;80.88;76.75;;;;;;;22.57;42.76;100633.16;4983241;28;20104;-73
2023/07/27 02:49:41;;;;;;;79.63;75.72;;;;;;;22.55;43.09;100624.41;4994181;28;20125;-73
2023/07/27 02:52:06;;;;;;;81.35;77.20;;;;;;;22.53;43.16;100623.13;4994623;28;20022;-75
2023/07/27 02:54:32;;;;;;;78.10;74.10;;;;;;;22.51;42.97;100615.19;4982749;28;20502;-74
2023/07/27 02:56:57;;;;;;;79.55;75.82;;;;;;;22.49;42.85;100606.47;4985367;28;20454;-74
2023/07/27 02:59:23;;;;;;;78.03;74.43;;;;;;;22.47;42.91;100594.97;4987628;28;20113;-75
2023/07/27 03:01:48;;;;;;;79.05;75.22;;;;;;;22.45;43.10;100594.47;4984993;28;20475;-75
2023/07/27 03:04:13;;;;;;;75.75;72.10;;;;;;;22.42;42.92;100584.94;4987451;28;20035;-74
2023/07/27 03:06:39;;;;;;;79.00;75.20;;;;;;;22.40;43.40;100578.97;4984153;28;20053;-74
2023/07/27 03:09:05;;;;;;;81.63;77.70;;;;;;;22.39;43.07;100579.28;4983548;28;20356;-75
2023/07/27 03:11:30;;;;;;;79.43;75.70;;;;;;;22.38;43.20;100583.19;4989987;28;20541;-75
2023/07/27 03:13:58;;;;;;;77.90;74.07;;;;;;;22.35;43.45;100570.88;4991835;28;20449;-75
2023/07/27 03:16:23;;;;;;;77.85;73.95;;;;;;;22.33;43.35;100573.16;4987102;28;20022;-74
2023/07/27 03:18:48;;;;;;;77.93;74.03;;;;;;;22.32;43.48;100565.19;4991516;28;20482;-74
2023/07/27 03:21:14;;;;;;;77.93;74.13;;;;;;;22.29;43.61;100558.41;4997206;28;20130;-74
2023/07/27 03:23:39;;;;;;;78.43;74.57;;;;;;;22.28;43.23;100556.00;4981520;28;20045;-74
2023/07/27 03:26:11;;;;;;;78.32;74.35;;;;;;;22.26;43.56;100542.56;4973537;28;20187;-75
2023/07/27 03:28:38;;;;;;;75.72;71.97;;;;;;;22.23;43.27;100537.72;4981479;28;20121;-81
2023/07/27 03:31:26;;;;;;;78.68;75.05;;;;;;;22.21;43.34;100537.22;4981381;28;20026;-75
2023/07/27 03:33:51;;;;;;;;;;;;;;;22.19;43.84;100525.69;5002189;28;20066;-75
2023/07/27 03:36:18;;;;;;;75.78;72.07;;;;;;;22.14;43.55;100523.94;4988038;28;19992;-76
2023/07/27 03:38:45;;;;;;;77.60;73.68;;;;;;;22.13;43.35;100507.75;4991449;28;20073;-77
2023/07/27 03:41:11;;;;;;;79.50;75.70;;;;;;;22.10;43.95;100497.38;4998586;28;20097;-75
2023/07/27 03:43:37;;;;;;;77.53;73.65;;;;;;;22.08;43.52;100491.44;4988639;28;20042;-75
2023/07/27 03:46:02;;;;;;;75.72;72.18;;;;;;;22.06;43.59;100488.19;4983172;28;20031;-75
2023/07/27 03:48:28;;;;;;;75.72;71.95;;;;;;;22.03;43.78;100493.22;4985033;28;20519;-75
2023/07/27 03:50:53;;;;;;;76.60;72.80;;;;;;;22.01;43.82;100500.16;4980837;28;20457;-75
2023/07/27 03:53:19;;;;;;;71.88;68.15;;;;;;;21.99;43.77;100488.69;4993973;28;20030;-75
2023/07/27 03:55:45;;;;;;;71.53;67.95;;;;;;;21.97;43.60;100494.53;4972772;28;20031;-74
2023/07/27 03:58:10;;;;;;;74.00;70.32;;;;;;;21.95;43.74;100485.78;4978812;28;20394;-74
2023/07/27 04:00:36;;;;;;;72.72;68.97;;;;;;;21.94;44.17;100486.91;4985330;28;20027;-75
2023/07/27 04:03:01;;;;;;;71.25;67.90;;;;;;;21.91;43.77;100484.00;4978232;28;20074;-75
2023/07/27 04:05:27;;;;;;;69.65;66.35;;;;;;;21.90;43.77;100479.63;4986611;28;20129;-75
2023/07/27 04:07:52;;;;;;;72.10;68.80;;;;;;;21.88;43.96;100481.91;4987375;28;20359;-74
2023/07/27 04:10:18;;;;;;;69.57;66.10;;;;;;;21.87;44.09;100474.78;4987956;28;20094;-74
2023/07/27 04:12:44;;;;;;;70.47;67.15;;;;;;;21.84;44.01;100470.75;4988769;28;20026;-74
2023/07/27 04:15:10;;;;;;;70.90;67.60;;;;;;;21.81;43.93;100469.44;4991571;28;20034;-74
2023/07/27 04:17:36;;;;;;;72.35;68.97;;;;;;;21.80;44.43;100456.03;5001096;28;20026;-75
2023/07/27 04:20:02;;;;;;;73.60;70.20;;;;;;;21.78;44.39;100455.56;4988417;28;20205;-75
2023/07/27 04:22:27;;;;;;;72.47;69.07;;;;;;;21.76;44.25;100461.38;4991884;28;20133;-75
2023/07/27 04:24:53;;;;;;;72.18;68.57;;;;;;;21.75;44.72;100456.22;4983142;28;20037;-76
2023/07/27 04:27:18;;;;;;;69.93;66.72;;;;;;;21.72;44.60;100445.84;4981729;28;20061;-75
2023/07/27 04:29:43;;;;;;;73.32;69.32;;;;;;;21.70;44.51;100445.38;4986587;28;20036;-75
2023/07/27 04:32:09;;;;;;;69.25;66.03;;;;;;;21.69;44.53;100449.25;4987164;28;20034;-74
2023/07/27 04:34:34;;;;;;;72.85;69.25;;;;;;;21.66;44.57;100444.41;4986147;28;20459;-74
2023/07/27 04:37:00;;;;;;;71.50;67.82;;;;;;;21.64;44.94;100439.22;4997968;28;20129;-74
2023/07/27 04:39:25;;;;;;;71.28;67.78;;;;;;;21.63;44.97;100436.81;4982655;28;20042;-75
2023/07/27 04:41:51;;;;;;;70.65;67.25;;;;;;;21.61;44.67;100434.38;4990054;28;20378;-74
2023/07/27 04:44:16;;;;;;;68.07;64.95;;;;;;;21.59;44.69;100426.44;4981270;28;20374;-73
2023/07/27 04:46:42;;;;;;;68.45;65.07;;;;;;;21.57;44.58;100428.72;4987855;28;20114;-75
2023/07/27 04:49:07;;;;;;;67.65;64.40;;;;;;;21.56;45.05;100429.03;4985221;28;20096;-75
2023/07/27 04:51:33;;;;;;;68.60;65.40;;;;;;;21.54;45.05;100428.56;4983098;28;20030;-75
2023/07/27 04:53:59;;;;;;;68.60;65.35;;;;;;;21.52;44.90;100423.41;4993344;28;20425;-77
2023/07/27 04:56:25;;;;;;;70.38;66.97;;;;;;;21.49;44.73;100421.28;4988718;28;20031;-75
2023/07/27 04:58:50;;;;;;;70.45;67.05;;;;;;;21.48;45.15;100416.13;4983175;28;20390;-73
2023/07/27 05:01:16;;;;;;;69.35;65.72;;;;;;;21.46;44.95;100416.44;4987600;28;20038;-73
2023/07/27 05:03:41;;;;;;;68.70;65.50;;;;;;;21.45;45.04;100409.34;4983983;28;20050;-75
2023/07/27 05:06:07;;;;;;;69.70;66.40;;;;;;;21.44;45.10;100413.19;4984394;28;20165;-73
2023/07/27 05:08:32;;;;;;;67.82;64.63;;;;;;;21.42;45.05;100399.00;4993560;28;20447;-73
2023/07/27 05:10:58;;;;;;;71.13;67.75;;;;;;;21.41;45.31;100402.06;4977804;28;20034;-72
2023/07/27 05:13:23;;;;;;;69.05;65.85;;;;;;;21.39;45.19;100399.63;4973176;28;20034;-73
2023/07/27 05:15:48;;;;;;;68.13;64.82;;;;;;;21.39;45.06;100396.88;4974047;28;20038;-74
2023/07/27 05:18:14;;;;;;;69.20;65.70;;;;;;;21.36;45.55;100392.81;4979985;28;20495;-73
2023/07/27 05:20:40;;;;;;;67.53;64.32;;;;;;;21.35;45.65;100393.94;4979802;28;20045;-73
2023/07/27 05:23:05;;;;;;;70.43;67.10;;;;;;;21.34;45.25;100389.59;5004048;28;20035;-73
2023/07/27 05:25:31;;;;;;;68.05;64.85;;;;;;;21.33;45.53;100381.69;4979209;28;20049;-72
2023/07/27 05:27:56;;;;;;;70.35;66.85;;;;;;;21.32;45.72;100380.06;4991507;28;20081;-73
2023/07/27 05:30:22;;;;;;;69.78;66.47;;;;;;;21.31;45.44;100386.69;5007383;28;20026;-72
2023/07/27 05:32:47;;;;;;;69.05;65.72;;;;;;;21.29;45.72;100375.19;4991437;28;20088;-73
2023/07/27 05:35:13;;;;;;;67.03;63.83;;;;;;;21.29;45.62;100377.94;4991325;28;20057;-73
2023/07/27 05:37:40;;;;;;;66.50;63.30;;;;;;;21.26;45.53;100373.91;4992073;28;20058;-75
2023/07/27 05:40:07;;;;;;;68.32;65.10;;;;;;;21.25;45.59;100364.06;4990465;28;20126;-74
2023/07/27 05:42:32;;;;;;;68.78;65.57;;;;;;;21.24;45.75;100376.16;4991862;28;20033;-74
2023/07/27 05:44:58;;;;;;;69.18;65.80;;;;;;;21.24;45.75;100373.41;4991215;28;20113;-74
2023/07/27 05:47:23;;;;;;;66.20;63.10;;;;;;;21.22;45.86;100361.97;4973696;28;20023;-73
2023/07/27 05:49:49;;;;;;;68.10;65.00;;;;;;;21.22;46.01;100369.38;4973628;28;20034;-73
2023/07/27 05:52:14;;;;;;;69.00;65.80;;;;;;;21.20;46.19;100364.22;4989713;28;20031;-74
2023/07/27 05:54:39;;;;;;;65.63;62.55;;;;;;;21.19;45.87;100376.31;4992804;28;20042;-75
2023/07/27 05:57:05;;;;;;;68.97;65.63;;;;;;;21.17;45.80;100368.44;4991031;28;20463;-76
2023/07/27 05:59:30;;;;;;;66.00;62.90;;;;;;;21.17;46.78;100357.44;4991130;28;20041;-74
2023/07/27 06:01:56;;;;;;;69.80;66.63;;;;;;;21.16;47.34;100357.75;4983631;28;20138;-72
2023/07/27 06:04:23;;;;;;;65.93;62.72;;;;;;;21.15;47.05;100365.19;4973223;28;20360;-76
2023/07/27 06:06:48;;;;;;;64.85;61.83;;;;;;;21.15;47.19;100361.66;4986772;28;20419;-77
2023/07/27 06:09:14;;;;;;;68.85;65.70;;;;;;;21.13;46.90;100356.47;4982062;28;20065;-76
2023/07/27 06:11:40;;;;;;;66.32;63.22;;;;;;;21.12;47.43;100352.13;4978550;28;20053;-76
2023/07/27 06:14:06;;;;;;;68.70;65.47;;;;;;;21.12;47.05;100348.56;4981484;28;20458;-75
2023/07/27 06:16:32;;;;;;;66.50;63.50;;;;;;;21.11;47.28;100341.44;4990844;28;20037;-75
2023/07/27 06:18:57;;;;;;;66.22;63.17;;;;;;;21.10;47.28;100342.59;4974275;28;20026;-76
2023/07/27 06:21:23;;;;;;;67.97;64.28;;;;;;;21.10;46.85;100350.81;4969377;28;20031;-75
2023/07/27 06:23:48;;;;;;;65.03;62.10;;;;;;;21.08;46.98;100344.84;4991514;28;20109;-75
2023/07/27 06:26:14;;;;;;;67.22;64.13;;;;;;;21.07;47.21;100346.78;4978379;28;20034;-75
2023/07/27 06:28:39;;;;;;;65.95;62.75;;;;;;;21.07;47.13;100349.53;4987762;28;20299;-76
2023/07/27 06:31:05;;;;;;;67.15;64.05;;;;;;;21.06;47.12;100350.63;4990963;28;20060;-75
2023/07/27 06:33:30;;;;;;;65.82;62.85;;;;;;;21.06;47.17;100347.09;4982056;28;20035;-76
2023/07/27 06:35:55;;;;;;;66.07;62.88;;;;;;;21.04;47.22;100352.09;4987420;28;20101;-81
2023/07/27 06:38:21;;;;;;;65.35;62.40;;;;;;;21.03;47.26;100348.53;4990711;28;20026;-76
2023/07/27 06:40:46;;;;;;;66.72;63.72;;;;;;;21.03;47.34;100345.81;4984094;28;20185;-77
2023/07/27 06:43:12;;;;;;;67.28;64.03;;;;;;;21.03;46.96;100345.81;4971592;28;20038;-76
2023/07/27 06:45:38;;;;;;;64.15;61.22;;;;;;;21.01;47.04;100341.75;4946065;28;20042;-78
2023/07/27 06:48:03;;;;;;;69.70;66.50;;;;;;;21.01;46.98;100341.75;4971946;28;20038;-77
2023/07/27 06:50:29;;;;;;;63.40;60.50;;;;;;;21.02;47.27;100340.66;4971816;28;20057;-78
2023/07/27 06:52:55;;;;;;;67.45;64.35;;;;;;;21.01;47.05;100347.25;4979773;28;20034;-77
2023/07/27 06:55:20;;;;;;;67.30;64.20;;;;;;;21.00;47.37;100351.94;4977395;28;20035;-77
2023/07/27 06:57:46;;;;;;;66.82;63.78;;;;;;;20.99;47.22;100338.53;4976259;28;20050;-78
2023/07/27 07:00:13;;;;;;;66.65;63.55;;;;;;;20.99;47.08;100342.09;5002451;28;20057;-79
2023/07/27 07:02:38;;;;;;;65.80;62.80;;;;;;;20.98;47.25;100343.22;4978404;28;20057;-79
2023/07/27 07:05:04;;;;;;;65.30;62.22;;;;;;;20.97;47.12;100341.63;4989325;28;20035;-79
2023/07/27 07:07:30;;;;;;;64.65;61.67;;;;;;;20.97;47.29;100344.34;5004934;28;20037;-80
2023/07/27 07:09:56;;;;;;;66.68;63.58;;;;;;;20.96;47.10;100342.72;4989243;28;20031;-80
2023/07/27 07:12:21;;;;;;;66.32;62.88;;;;;;;20.96;47.38;100342.72;4986810;28;20034;-79
2023/07/27 07:14:47;;;;;;;66.53;63.47;;;;;;;20.95;47.06;100344.66;4968100;28;20038;-74
2023/07/27 07:17:12;;;;;;;68.47;65.28;;;;;;;20.95;47.07;100352.09;4971859;28;20026;-75
2023/07/27 07:19:38;;;;;;;65.85;62.75;;;;;;;20.95;47.27;100341.13;5005706;28;20026;-74
2023/07/27 07:22:03;;;;;;;64.95;61.90;;;;;;;20.95;47.65;100338.38;4990660;28;20459;-74
2023/07/27 07:24:29;;;;;;;66.28;63.17;;;;;;;20.94;47.60;100334.00;4991414;28;20026;-74
2023/07/27 07:26:55;;;;;;;65.95;62.90;;;;;;;20.93;47.94;100330.44;4991488;28;20079;-76
2023/07/27 07:29:21;;;;;;;64.53;61.53;;;;;;;20.93;48.14;100333.19;4986852;28;20233;-75
2023/07/27 07:31:47;;;;;;;64.07;61.15;;;;;;;20.94;48.49;100334.00;4991750;28;20037;-74
2023/07/27 07:34:13;;;;;;;64.38;61.38;;;;;;;20.92;48.12;100326.09;5003935;28;20042;-74
2023/07/27 07:36:38;;;;;;;65.45;62.35;;;;;;;20.93;48.22;100324.97;4972277;28;20035;-74
2023/07/27 07:39:03;;;;;;;66.38;63.25;;;;;;;20.94;48.24;100340.31;4972740;28;20424;-74
2023/07/27 07:41:29;;;;;;;65.25;62.25;;;;;;;20.94;48.30;100323.84;4982530;28;20061;-74
2023/07/27 07:43:54;;;;;;;66.57;63.50;;;;;;;20.94;48.11;100325.75;4974359;28;20429;-74
2023/07/27 07:46:20;;;;;;;67.60;64.40;;;;;;;20.93;48.63;100324.97;4982017;28;20177;-79
2023/07/27 07:48:45;;;;;;;66.78;63.65;;;;;;;20.94;48.38;100332.09;4989869;28;20039;-75
2023/07/27 07:51:12;;;;;;;67.80;64.60;;;;;;;20.93;48.30;100330.44;4995413;28;20045;-75
2023/07/27 07:53:37;;;;;;;65.40;62.40;;;;;;;20.94;48.06;100331.25;4996280;28;20084;-75
2023/07/27 07:56:04;;;;;;;66.60;63.47;;;;;;;20.94;48.37;100329.34;4985045;28;20043;-75
2023/07/27 07:58:30;;;;;;;68.18;64.88;;;;;;;20.94;48.49;100323.84;4980780;28;20076;-75
2023/07/27 08:00:56;;;;;;;65.13;62.15;;;;;;;20.94;48.14;100328.50;4996010;28;20029;-76
2023/07/27 08:03:21;;;;;;;67.25;64.05;;;;;;;20.94;48.31;100329.34;4984219;28;20061;-76
2023/07/27 08:05:47;;;;;;;67.15;64.07;;;;;;;20.94;48.40;100325.75;4975610;28;20106;-75
2023/07/27 08:08:13;;;;;;;67.38;64.07;;;;;;;20.94;48.48;100329.34;4974398;28;20058;-77
2023/07/27 08:10:39;;;;;;;65.40;62.40;;;;;;;20.93;48.29;100326.91;4999931;28;20036;-75
2023/07/27 08:13:04;;;;;;;67.35;64.10;;;;;;;20.95;48.55;100319.16;5004103;28;20402;-76
2023/07/27 08:15:29;;;;;;;66.75;63.75;;;;;;;20.95;48.50;100310.91;5010027;28;20054;-76
2023/07/27 08:17:55;;;;;;;64.72;61.75;;;;;;;20.94;48.24;100312.88;4994699;28;20034;-77
2023/07/27 08:20:21;;;;;;;65.40;62.30;;;;;;;20.96;48.58;100318.00;4985561;28;20038;-72
2023/07/27 08:22:46;;;;;;;67.22;64.13;;;;;;;20.94;48.84;100317.53;4997562;28;20049;-76
2023/07/27 08:25:12;;;;;;;65.47;62.47;;;;;;;20.95;49.43;100319.97;4985923;28;20061;-77
2023/07/27 08:27:37;;;;;;;65.45;62.45;;;;;;;20.95;49.53;100306.22;4981496;28;20089;-78
2023/07/27 08:30:04;;;;;;;68.80;65.60;;;;;;;20.96;49.66;100310.59;4986247;28;20039;-76
2023/07/27 08:32:29;;;;;;;64.82;61.83;;;;;;;20.96;49.42;100310.59;4985701;28;20035;-78
2023/07/27 08:34:55;;;;;;;66.05;63.05;;;;;;;20.98;49.77;100306.72;4978352;28;20035;-76
2023/07/27 08:37:20;;;;;;;67.78;64.57;;;;;;;20.99;49.34;100314.66;4984966;28;20490;-74
2023/07/27 08:39:46;;;;;;;66.82;63.78;;;;;;;20.99;49.34;100314.66;4992710;28;20406;-75
2023/07/27 08:42:15;;;;;;;65.72;62.67;;;;;;;21.00;49.45;100304.47;4994391;28;20073;-77
2023/07/27 08:44:43;;;;;;;65.47;62.28;;;;;;;21.01;49.95;100312.34;4992646;28;20038;-78
2023/07/27 08:47:09;;;;;;;65.65;62.60;;;;;;;21.01;49.78;100306.88;4990868;28;20447;-85
2023/07/27 08:49:39;;;;;;;66.10;63.00;;;;;;;21.01;49.88;100309.63;4978167;28;20062;-77
2023/07/27 08:52:06;;;;;;;64.30;61.35;;;;;;;21.02;49.94;100305.75;5007582;28;20121;-78
2023/07/27 08:54:31;;;;;;;66.60;63.50;;;;;;;21.02;50.01;100322.22;4993134;28;20136;-76
2023/07/27 08:56:57;;;;;;;66.90;63.50;;;;;;;21.04;50.03;100319.13;4994043;28;20443;-76
2023/07/27 08:59:25;;;;;;;65.07;62.00;;;;;;;21.03;49.91;100315.59;4986150;28;20030;-80
2023/07/27 09:01:51;;;;;;;65.28;62.28;;;;;;;21.04;49.77;100306.25;4998060;28;20046;-75
2023/07/27 09:04:17;;;;;;;65.78;62.67;;;;;;;21.04;49.83;100319.97;4979522;28;20041;-76
2023/07/27 09:06:49;;;;;;;65.72;62.72;;;;;;;21.05;49.69;100316.09;5004103;28;20122;-77
2023/07/27 09:09:20;;;;;;;67.47;64.43;;;;;;;21.05;50.19;100316.09;4981948;28;20050;-77
2023/07/27 09:11:46;;;;;;;66.82;63.72;;;;;;;21.05;50.39;100313.34;4992825;28;20072;-76
2023/07/27 09:14:13;;;;;;;65.65;62.63;;;;;;;21.06;50.01;100322.38;4972712;28;20503;-80
2023/07/27 09:16:38;;;;;;;66.00;63.00;;;;;;;21.06;50.31;100309.44;4996103;28;20356;-76
2023/07/27 09:19:05;;;;;;;65.53;62.53;;;;;;;21.07;50.22;100313.81;4990429;28;20042;-76
2023/07/27 09:21:46;;;;;;;67.20;64.00;;;;;;;21.07;50.56;100313.81;4984223;28;20042;-77
2023/07/27 09:24:16;;;;;;;64.57;61.30;;;;;;;21.08;50.29;100311.88;5002583;28;20053;-79
2023/07/27 09:26:50;;;;;;;63.40;60.50;;;;;;;21.08;50.67;100304.44;4990434;28;20112;-78
2023/07/27 09:29:17;;;;;;;65.85;62.83;;;;;;;21.09;50.21;100318.97;4987892;28;20027;-78
2023/07/27 09:31:50;;;;;;;65.78;62.78;;;;;;;21.09;50.69;100308.81;4980647;28;20030;-77
2023/07/27 09:34:18;;;;;;;65.82;62.10;;;;;;;21.10;50.67;100304.13;4992138;28;20057;-76
2023/07/27 09:36:46;;;;;;;65.27;62.27;;;;;;;21.11;50.65;100305.72;4997252;28;20040;-76
2023/07/27 09:39:13;;;;;;;63.50;60.40;;;;;;;21.11;50.68;100297.50;4999433;28;20029;-77
2023/07/27 09:41:42;;;;;;;64.32;61.42;;;;;;;21.12;50.40;100304.63;4984853;28;20039;-75
2023/07/27 09:44:15;;;;;;;64.03;61.13;;;;;;;21.12;50.55;100305.44;4988437;28;20033;-75
2023/07/27 09:46:42;;;;;;;65.43;62.42;;;;;;;21.13;50.62;100303.47;4989178;28;20109;-76
2023/07/27 09:49:08;;;;;;;67.07;63.97;;;;;;;21.14;50.99;100305.91;4978747;28;20483;-75
2023/07/27 09:51:34;;;;;;;66.88;63.67;;;;;;;21.15;50.93;100303.97;4986085;28;20034;-76
2023/07/27 09:54:00;;;;;;;64.00;61.10;;;;;;;21.16;50.75;100303.63;4990434;28;20120;-75
2023/07/27 09:56:27;;;;;;;66.25;63.15;;;;;;;21.16;50.62;100300.88;4989090;28;20038;-75
2023/07/27 09:58:53;;;;;;;66.53;63.38;;;;;;;21.18;50.86;100308.81;4986217;28;20033;-76
2023/07/27 10:01:20;;;;;;;65.88;62.80;;;;;;;21.20;50.36;100305.75;4985719;28;20098;-76
2023/07/27 10:03:46;;;;;;;66.40;63.20;;;;;;;21.20;51.04;100309.28;4986305;28;20047;-76
2023/07/27 10:06:15;;;;;;;66.18;63.17;;;;;;;21.21;50.83;100310.09;4996054;28;20379;-75
2023/07/27 10:08:42;;;;;;;65.47;62.50;;;;;;;21.21;50.93;100316.38;4974617;28;20073;-75
2023/07/27 10:11:08;;;;;;;68.10;64.90;;;;;;;21.22;50.99;100315.28;5001550;28;20092;-77
2023/07/27 10:13:43;;;;;;;68.22;64.82;;;;;;;21.24;50.78;100312.19;5004263;28;20034;-76
2023/07/27 10:16:15;;;;;;;65.45;62.45;;;;;;;21.23;50.80;100303.16;4985718;28;20085;-76
2023/07/27 10:18:42;;;;;;;65.80;62.72;;;;;;;21.25;50.89;100306.38;4991949;28;20498;-76
2023/07/27 10:21:32;;;;;;;66.10;63.10;;;;;;;21.26;51.20;100310.72;4977601;28;20042;-76
2023/07/27 10:24:02;;;;;;;66.05;63.00;;;;;;;21.26;50.72;100305.22;4981271;28;20050;-77
2023/07/27 10:27:03;;;;;;;65.82;62.63;;;;;;;21.28;51.29;100304.91;4989157;28;20030;-78
2023/07/27 10:29:29;;;;;;;65.32;62.22;;;;;;;21.28;50.76;100308.47;4985330;28;20050;-78
2023/07/27 10:32:11;;;;;;;64.90;61.92;;;;;;;21.29;50.98;100303.78;4991013;28;20089;-73
2023/07/27 10:34:38;;;;;;;69.93;66.63;;;;;;;21.29;51.03;100306.53;4988906;28;20038;-75
2023/07/27 10:37:06;;;;;;;66.63;63.55;;;;;;;21.30;50.97;100308.97;4990775;28;20038;-78
2023/07/27 10:39:43;;;;;;;67.35;64.18;;;;;;;21.31;50.92;100299.56;4988845;28;20141;-79
2023/07/27 10:42:14;;;;;;;64.00;61.08;;;;;;;21.33;51.20;100307.50;5006809;28;20045;-77
2023/07/27 10:44:46;;;;;;;69.55;66.20;;;;;;;21.34;50.92;100306.34;4975872;28;20030;-76
2023/07/27 10:47:13;;;;;;;67.88;64.70;;;;;;;21.34;51.02;100309.94;4987010;28;20350;-77
2023/07/27 10:49:44;;;;;;;68.18;64.97;;;;;;;21.35;51.61;100311.53;4979501;28;20468;-76
2023/07/27 10:52:14;;;;;;;65.50;62.45;;;;;;;21.36;51.56;100312.34;4977081;28;20075;-76
2023/07/27 10:54:40;;;;;;;64.88;61.88;;;;;;;21.37;51.17;100311.22;4970459;28;20026;-77
2023/07/27 10:57:08;;;;;;;66.95;63.90;;;;;;;21.36;51.12;100304.91;4985868;28;20479;-76
2023/07/27 10:59:50;;;;;;;68.22;64.95;;;;;;;21.38;51.37;100313.66;4988734;28;20038;-76
2023/07/27 11:02:20;;;;;;;66.88;63.80;;;;;;;21.38;51.28;100302.66;4977816;28;20058;-76
2023/07/27 11:04:49;;;;;;;65.72;62.72;;;;;;;21.40;51.05;100302.34;4978923;28;20570;-76
2023/07/27 11:07:27;;;;;;;67.82;64.72;;;;;;;21.42;51.59;100308.34;4986602;28;20061;-77
2023/07/27 11:09:53;;;;;;;68.88;65.78;;;;;;;21.42;51.20;100291.00;4982945;28;20027;-77